sensor_id;sensor_type;location;lat;lon;timestamp;P1;durP1;ratioP1;P2;durP2;ratioP2
44838;SDS011;30576;42.098;24.876;2022-08-01T00:01:41;3.92;;;2.55;;
44838;SDS011;30576;42.098;24.876;2022-08-01T00:04:06;3.42;;;2.60;;
44838;SDS011;30576;42.098;24.876;2022-08-01T00:06:32;4.40;;;2.75;;
44838;SDS011;30576;42.098;24.876;2022-08-01T00:08:57;3.88;;;2.78;;
44838;SDS011;30576;42.098;24.876;2022-08-01T00:11:23;4.82;;;3.03;;
44838;SDS011;30576;42.098;24.876;2022-08-01T00:13:48;6.28;;;3.58;;
44838;SDS011;30576;42.098;24.876;2022-08-01T00:16:14;4.80;;;3.08;;
44838;SDS011;30576;42.098;24.876;2022-08-01T00:18:40;4.82;;;3.50;;
44838;SDS011;30576;42.098;24.876;2022-08-01T00:21:06;3.58;;;3.05;;
44838;SDS011;30576;42.098;24.876;2022-08-01T00:23:32;4.78;;;3.42;;
44838;SDS011;30576;42.098;24.876;2022-08-01T00:25:58;3.58;;;2.70;;
44838;SDS011;30576;42.098;24.876;2022-08-01T00:28:23;3.55;;;2.97;;
44838;SDS011;30576;42.098;24.876;2022-08-01T00:30:49;4.47;;;3.08;;
44838;SDS011;30576;42.098;24.876;2022-08-01T00:33:14;3.15;;;2.38;;
44838;SDS011;30576;42.098;24.876;2022-08-01T00:35:40;3.85;;;2.55;;
44838;SDS011;30576;42.098;24.876;2022-08-01T00:38:05;5.15;;;3.83;;
44838;SDS011;30576;42.098;24.876;2022-08-01T00:40:31;3.25;;;2.30;;
44838;SDS011;30576;42.098;24.876;2022-08-01T00:42:56;4.65;;;3.55;;
44838;SDS011;30576;42.098;24.876;2022-08-01T00:45:22;3.13;;;2.40;;
44838;SDS011;30576;42.098;24.876;2022-08-01T00:47:47;3.33;;;2.70;;
44838;SDS011;30576;42.098;24.876;2022-08-01T00:50:13;4.35;;;3.25;;
44838;SDS011;30576;42.098;24.876;2022-08-01T00:52:39;3.55;;;3.00;;
44838;SDS011;30576;42.098;24.876;2022-08-01T00:55:05;3.97;;;2.63;;
44838;SDS011;30576;42.098;24.876;2022-08-01T00:57:31;4.20;;;2.97;;
44838;SDS011;30576;42.098;24.876;2022-08-01T00:59:57;4.13;;;3.10;;
44838;SDS011;30576;42.098;24.876;2022-08-01T01:02:22;5.38;;;3.60;;
44838;SDS011;30576;42.098;24.876;2022-08-01T01:04:48;3.65;;;2.85;;
44838;SDS011;30576;42.098;24.876;2022-08-01T01:09:50;5.70;;;3.20;;
44838;SDS011;30576;42.098;24.876;2022-08-01T01:15:08;3.58;;;3.03;;
44838;SDS011;30576;42.098;24.876;2022-08-01T01:17:58;4.05;;;2.88;;
44838;SDS011;30576;42.098;24.876;2022-08-01T01:20:27;4.68;;;3.03;;
44838;SDS011;30576;42.098;24.876;2022-08-01T01:23:05;2.95;;;2.63;;
44838;SDS011;30576;42.098;24.876;2022-08-01T01:30:48;4.72;;;3.65;;
44838;SDS011;30576;42.098;24.876;2022-08-01T01:33:18;4.75;;;3.35;;
44838;SDS011;30576;42.098;24.876;2022-08-01T01:35:46;5.03;;;3.88;;
44838;SDS011;30576;42.098;24.876;2022-08-01T01:38:19;7.97;;;4.28;;
44838;SDS011;30576;42.098;24.876;2022-08-01T01:40:47;5.50;;;3.88;;
44838;SDS011;30576;42.098;24.876;2022-08-01T01:43:16;5.05;;;3.17;;
44838;SDS011;30576;42.098;24.876;2022-08-01T01:45:44;4.60;;;3.17;;
44838;SDS011;30576;42.098;24.876;2022-08-01T01:48:16;2.60;;;2.20;;
44838;SDS011;30576;42.098;24.876;2022-08-01T01:50:45;3.65;;;2.72;;
44838;SDS011;30576;42.098;24.876;2022-08-01T01:53:12;2.97;;;2.42;;
44838;SDS011;30576;42.098;24.876;2022-08-01T01:55:40;4.70;;;3.53;;
44838;SDS011;30576;42.098;24.876;2022-08-01T01:58:08;5.38;;;3.55;;
44838;SDS011;30576;42.098;24.876;2022-08-01T02:00:37;4.72;;;3.15;;
44838;SDS011;30576;42.098;24.876;2022-08-01T02:03:04;3.13;;;2.45;;
44838;SDS011;30576;42.098;24.876;2022-08-01T02:05:32;4.13;;;2.92;;
44838;SDS011;30576;42.098;24.876;2022-08-01T02:08:01;3.42;;;2.38;;
44838;SDS011;30576;42.098;24.876;2022-08-01T02:10:29;4.18;;;2.90;;
44838;SDS011;30576;42.098;24.876;2022-08-01T02:13:00;2.70;;;2.20;;
44838;SDS011;30576;42.098;24.876;2022-08-01T02:15:30;3.88;;;2.60;;
44838;SDS011;30576;42.098;24.876;2022-08-01T02:17:58;4.63;;;3.42;;
44838;SDS011;30576;42.098;24.876;2022-08-01T02:20:27;5.03;;;2.88;;
44838;SDS011;30576;42.098;24.876;2022-08-01T02:23:00;3.60;;;2.75;;
44838;SDS011;30576;42.098;24.876;2022-08-01T02:25:32;4.22;;;3.08;;
44838;SDS011;30576;42.098;24.876;2022-08-01T02:31:01;5.10;;;2.75;;
44838;SDS011;30576;42.098;24.876;2022-08-01T02:33:33;5.45;;;3.45;;
44838;SDS011;30576;42.098;24.876;2022-08-01T02:36:02;5.05;;;2.65;;
44838;SDS011;30576;42.098;24.876;2022-08-01T02:38:28;3.47;;;2.58;;
44838;SDS011;30576;42.098;24.876;2022-08-01T02:40:58;3.90;;;2.67;;
44838;SDS011;30576;42.098;24.876;2022-08-01T02:43:28;3.38;;;2.50;;
44838;SDS011;30576;42.098;24.876;2022-08-01T02:45:58;3.40;;;2.42;;
44838;SDS011;30576;42.098;24.876;2022-08-01T02:48:27;6.70;;;2.85;;
44838;SDS011;30576;42.098;24.876;2022-08-01T02:51:00;5.25;;;2.45;;
44838;SDS011;30576;42.098;24.876;2022-08-01T02:53:27;3.53;;;2.17;;
44838;SDS011;30576;42.098;24.876;2022-08-01T02:55:56;4.47;;;2.70;;
44838;SDS011;30576;42.098;24.876;2022-08-01T02:58:23;4.20;;;3.28;;
44838;SDS011;30576;42.098;24.876;2022-08-01T03:00:50;3.17;;;2.72;;
44838;SDS011;30576;42.098;24.876;2022-08-01T03:03:17;2.95;;;1.80;;
44838;SDS011;30576;42.098;24.876;2022-08-01T03:05:43;3.00;;;2.45;;
44838;SDS011;30576;42.098;24.876;2022-08-01T03:08:11;3.40;;;2.33;;
44838;SDS011;30576;42.098;24.876;2022-08-01T03:10:39;3.90;;;2.22;;
44838;SDS011;30576;42.098;24.876;2022-08-01T03:13:08;5.03;;;3.30;;
44838;SDS011;30576;42.098;24.876;2022-08-01T03:15:35;2.92;;;2.00;;
44838;SDS011;30576;42.098;24.876;2022-08-01T03:18:04;5.85;;;3.88;;
44838;SDS011;30576;42.098;24.876;2022-08-01T03:20:34;4.72;;;2.90;;
44838;SDS011;30576;42.098;24.876;2022-08-01T03:23:01;2.50;;;1.85;;
44838;SDS011;30576;42.098;24.876;2022-08-01T03:25:30;2.35;;;2.03;;
44838;SDS011;30576;42.098;24.876;2022-08-01T03:27:58;2.28;;;1.77;;
44838;SDS011;30576;42.098;24.876;2022-08-01T03:30:26;2.75;;;1.50;;
44838;SDS011;30576;42.098;24.876;2022-08-01T03:32:53;2.63;;;1.75;;
44838;SDS011;30576;42.098;24.876;2022-08-01T03:35:19;3.67;;;2.08;;
44838;SDS011;30576;42.098;24.876;2022-08-01T03:37:50;3.25;;;1.80;;
44838;SDS011;30576;42.098;24.876;2022-08-01T03:40:23;3.25;;;2.13;;
44838;SDS011;30576;42.098;24.876;2022-08-01T03:42:54;2.63;;;1.88;;
44838;SDS011;30576;42.098;24.876;2022-08-01T03:45:31;4.10;;;2.10;;
44838;SDS011;30576;42.098;24.876;2022-08-01T03:48:02;2.80;;;1.98;;
44838;SDS011;30576;42.098;24.876;2022-08-01T03:50:33;2.47;;;1.65;;
44838;SDS011;30576;42.098;24.876;2022-08-01T03:53:02;2.78;;;2.03;;
44838;SDS011;30576;42.098;24.876;2022-08-01T03:55:29;3.13;;;2.33;;
44838;SDS011;30576;42.098;24.876;2022-08-01T03:57:56;3.67;;;2.63;;
44838;SDS011;30576;42.098;24.876;2022-08-01T04:00:24;2.35;;;1.60;;
44838;SDS011;30576;42.098;24.876;2022-08-01T04:02:51;3.65;;;2.15;;
44838;SDS011;30576;42.098;24.876;2022-08-01T04:05:17;2.08;;;1.40;;
44838;SDS011;30576;42.098;24.876;2022-08-01T04:07:47;4.43;;;2.38;;
44838;SDS011;30576;42.098;24.876;2022-08-01T04:10:20;3.47;;;2.03;;
44838;SDS011;30576;42.098;24.876;2022-08-01T04:12:45;3.03;;;1.95;;
44838;SDS011;30576;42.098;24.876;2022-08-01T04:15:11;3.30;;;2.10;;
44838;SDS011;30576;42.098;24.876;2022-08-01T04:17:36;3.45;;;2.17;;
44838;SDS011;30576;42.098;24.876;2022-08-01T04:20:02;2.35;;;1.75;;
44838;SDS011;30576;42.098;24.876;2022-08-01T04:22:27;2.10;;;1.73;;
44838;SDS011;30576;42.098;24.876;2022-08-01T04:24:55;2.40;;;1.60;;
44838;SDS011;30576;42.098;24.876;2022-08-01T04:27:25;3.13;;;1.83;;
44838;SDS011;30576;42.098;24.876;2022-08-01T04:29:54;2.30;;;1.60;;
44838;SDS011;30576;42.098;24.876;2022-08-01T04:32:23;3.70;;;1.85;;
44838;SDS011;30576;42.098;24.876;2022-08-01T04:34:52;2.08;;;1.50;;
44838;SDS011;30576;42.098;24.876;2022-08-01T04:37:22;3.72;;;2.35;;
44838;SDS011;30576;42.098;24.876;2022-08-01T04:39:48;4.88;;;2.42;;
44838;SDS011;30576;42.098;24.876;2022-08-01T04:42:16;5.38;;;2.55;;
44838;SDS011;30576;42.098;24.876;2022-08-01T04:44:42;2.45;;;1.85;;
44838;SDS011;30576;42.098;24.876;2022-08-01T04:47:07;2.53;;;1.73;;
44838;SDS011;30576;42.098;24.876;2022-08-01T04:49:34;2.60;;;1.98;;
44838;SDS011;30576;42.098;24.876;2022-08-01T04:52:00;3.33;;;1.40;;
44838;SDS011;30576;42.098;24.876;2022-08-01T04:54:26;2.90;;;1.92;;
44838;SDS011;30576;42.098;24.876;2022-08-01T04:56:53;1.73;;;1.30;;
44838;SDS011;30576;42.098;24.876;2022-08-01T04:59:35;1.60;;;1.13;;
44838;SDS011;30576;42.098;24.876;2022-08-01T05:02:11;3.25;;;2.15;;
44838;SDS011;30576;42.098;24.876;2022-08-01T05:04:39;2.75;;;1.75;;
44838;SDS011;30576;42.098;24.876;2022-08-01T05:07:05;6.10;;;1.80;;
44838;SDS011;30576;42.098;24.876;2022-08-01T05:09:32;1.98;;;1.45;;
44838;SDS011;30576;42.098;24.876;2022-08-01T05:11:58;2.10;;;1.13;;
44838;SDS011;30576;42.098;24.876;2022-08-01T05:14:26;24.60;;;2.42;;
44838;SDS011;30576;42.098;24.876;2022-08-01T05:16:53;1.70;;;1.35;;
44838;SDS011;30576;42.098;24.876;2022-08-01T05:19:19;1.52;;;1.20;;
44838;SDS011;30576;42.098;24.876;2022-08-01T05:21:46;3.35;;;1.58;;
44838;SDS011;30576;42.098;24.876;2022-08-01T05:24:12;3.22;;;1.15;;
44838;SDS011;30576;42.098;24.876;2022-08-01T05:26:38;2.47;;;0.85;;
44838;SDS011;30576;42.098;24.876;2022-08-01T05:29:03;3.50;;;1.63;;
44838;SDS011;30576;42.098;24.876;2022-08-01T05:31:29;1.35;;;1.08;;
44838;SDS011;30576;42.098;24.876;2022-08-01T05:33:55;2.95;;;1.65;;
44838;SDS011;30576;42.098;24.876;2022-08-01T05:36:20;1.42;;;1.10;;
44838;SDS011;30576;42.098;24.876;2022-08-01T05:38:46;2.15;;;1.20;;
44838;SDS011;30576;42.098;24.876;2022-08-01T05:41:11;2.33;;;1.13;;
44838;SDS011;30576;42.098;24.876;2022-08-01T05:43:37;2.65;;;1.67;;
44838;SDS011;30576;42.098;24.876;2022-08-01T05:46:02;3.42;;;1.88;;
44838;SDS011;30576;42.098;24.876;2022-08-01T05:48:28;2.53;;;1.83;;
44838;SDS011;30576;42.098;24.876;2022-08-01T05:50:54;2.50;;;1.20;;
44838;SDS011;30576;42.098;24.876;2022-08-01T05:53:19;5.30;;;1.15;;
44838;SDS011;30576;42.098;24.876;2022-08-01T05:55:45;1.90;;;1.20;;
44838;SDS011;30576;42.098;24.876;2022-08-01T05:58:10;1.98;;;1.42;;
44838;SDS011;30576;42.098;24.876;2022-08-01T06:00:36;1.88;;;1.05;;
44838;SDS011;30576;42.098;24.876;2022-08-01T06:03:01;1.90;;;1.55;;
44838;SDS011;30576;42.098;24.876;2022-08-01T06:05:27;1.63;;;1.10;;
44838;SDS011;30576;42.098;24.876;2022-08-01T06:07:53;1.67;;;1.40;;
44838;SDS011;30576;42.098;24.876;2022-08-01T06:10:18;2.22;;;1.50;;
44838;SDS011;30576;42.098;24.876;2022-08-01T06:12:44;1.52;;;1.10;;
44838;SDS011;30576;42.098;24.876;2022-08-01T06:15:10;1.40;;;1.00;;
44838;SDS011;30576;42.098;24.876;2022-08-01T06:17:36;3.20;;;1.30;;
44838;SDS011;30576;42.098;24.876;2022-08-01T06:20:01;1.80;;;1.25;;
44838;SDS011;30576;42.098;24.876;2022-08-01T06:22:27;1.67;;;1.15;;
44838;SDS011;30576;42.098;24.876;2022-08-01T06:24:53;1.13;;;0.90;;
44838;SDS011;30576;42.098;24.876;2022-08-01T06:27:18;1.50;;;0.85;;
44838;SDS011;30576;42.098;24.876;2022-08-01T06:29:44;0.95;;;0.70;;
44838;SDS011;30576;42.098;24.876;2022-08-01T06:32:09;2.50;;;1.10;;
44838;SDS011;30576;42.098;24.876;2022-08-01T06:34:35;1.33;;;0.75;;
44838;SDS011;30576;42.098;24.876;2022-08-01T06:37:01;1.63;;;0.90;;
44838;SDS011;30576;42.098;24.876;2022-08-01T06:39:26;2.28;;;1.63;;
44838;SDS011;30576;42.098;24.876;2022-08-01T06:41:52;2.40;;;1.42;;
44838;SDS011;30576;42.098;24.876;2022-08-01T06:44:17;2.00;;;1.15;;
44838;SDS011;30576;42.098;24.876;2022-08-01T06:46:43;2.05;;;1.10;;
44838;SDS011;30576;42.098;24.876;2022-08-01T06:49:08;0.98;;;0.80;;
44838;SDS011;30576;42.098;24.876;2022-08-01T06:51:34;1.70;;;1.13;;
44838;SDS011;30576;42.098;24.876;2022-08-01T06:53:59;2.35;;;1.58;;
44838;SDS011;30576;42.098;24.876;2022-08-01T06:56:25;0.75;;;0.75;;
44838;SDS011;30576;42.098;24.876;2022-08-01T06:58:50;2.25;;;0.57;;
44838;SDS011;30576;42.098;24.876;2022-08-01T07:01:16;2.55;;;0.80;;
44838;SDS011;30576;42.098;24.876;2022-08-01T07:03:41;2.70;;;1.27;;
44838;SDS011;30576;42.098;24.876;2022-08-01T07:06:07;1.50;;;0.95;;
44838;SDS011;30576;42.098;24.876;2022-08-01T07:08:32;1.00;;;0.70;;
44838;SDS011;30576;42.098;24.876;2022-08-01T07:10:58;2.22;;;1.00;;
44838;SDS011;30576;42.098;24.876;2022-08-01T07:13:24;2.78;;;1.20;;
44838;SDS011;30576;42.098;24.876;2022-08-01T07:15:51;1.95;;;1.38;;
44838;SDS011;30576;42.098;24.876;2022-08-01T07:18:17;2.15;;;1.42;;
44838;SDS011;30576;42.098;24.876;2022-08-01T07:20:43;0.55;;;0.52;;
44838;SDS011;30576;42.098;24.876;2022-08-01T07:23:11;15.70;;;1.45;;
44838;SDS011;30576;42.098;24.876;2022-08-01T07:25:37;2.53;;;1.08;;
44838;SDS011;30576;42.098;24.876;2022-08-01T07:28:02;0.75;;;0.70;;
44838;SDS011;30576;42.098;24.876;2022-08-01T07:30:28;1.23;;;1.10;;
44838;SDS011;30576;42.098;24.876;2022-08-01T07:32:54;1.98;;;1.15;;
44838;SDS011;30576;42.098;24.876;2022-08-01T07:35:19;2.33;;;0.85;;
44838;SDS011;30576;42.098;24.876;2022-08-01T07:37:45;1.80;;;1.05;;
44838;SDS011;30576;42.098;24.876;2022-08-01T07:40:10;1.17;;;0.90;;
44838;SDS011;30576;42.098;24.876;2022-08-01T07:42:36;3.55;;;0.75;;
44838;SDS011;30576;42.098;24.876;2022-08-01T07:45:01;1.20;;;0.93;;
44838;SDS011;30576;42.098;24.876;2022-08-01T07:47:27;0.95;;;0.85;;
44838;SDS011;30576;42.098;24.876;2022-08-01T07:49:58;1.10;;;0.90;;
44838;SDS011;30576;42.098;24.876;2022-08-01T07:52:25;1.67;;;0.85;;
44838;SDS011;30576;42.098;24.876;2022-08-01T07:54:52;1.27;;;0.90;;
44838;SDS011;30576;42.098;24.876;2022-08-01T07:57:17;2.25;;;1.20;;
44838;SDS011;30576;42.098;24.876;2022-08-01T07:59:43;1.73;;;1.08;;
44838;SDS011;30576;42.098;24.876;2022-08-01T08:02:08;1.27;;;0.80;;
44838;SDS011;30576;42.098;24.876;2022-08-01T08:04:34;1.98;;;0.88;;
44838;SDS011;30576;42.098;24.876;2022-08-01T08:06:59;2.90;;;0.95;;
44838;SDS011;30576;42.098;24.876;2022-08-01T08:09:25;8.27;;;1.88;;
44838;SDS011;30576;42.098;24.876;2022-08-01T08:11:51;1.80;;;0.80;;
44838;SDS011;30576;42.098;24.876;2022-08-01T08:14:16;1.02;;;0.85;;
44838;SDS011;30576;42.098;24.876;2022-08-01T08:16:43;1.02;;;0.70;;
44838;SDS011;30576;42.098;24.876;2022-08-01T08:19:09;0.80;;;0.70;;
44838;SDS011;30576;42.098;24.876;2022-08-01T08:21:35;2.22;;;1.15;;
44838;SDS011;30576;42.098;24.876;2022-08-01T08:24:02;2.50;;;1.27;;
44838;SDS011;30576;42.098;24.876;2022-08-01T08:26:50;1.20;;;0.75;;
44838;SDS011;30576;42.098;24.876;2022-08-01T08:29:18;3.08;;;0.70;;
44838;SDS011;30576;42.098;24.876;2022-08-01T08:31:44;0.52;;;0.50;;
44838;SDS011;30576;42.098;24.876;2022-08-01T08:34:10;0.60;;;0.60;;
44838;SDS011;30576;42.098;24.876;2022-08-01T08:36:36;0.80;;;0.70;;
44838;SDS011;30576;42.098;24.876;2022-08-01T08:39:02;1.50;;;1.00;;
44838;SDS011;30576;42.098;24.876;2022-08-01T08:41:29;0.57;;;0.57;;
44838;SDS011;30576;42.098;24.876;2022-08-01T08:43:55;2.75;;;1.88;;
44838;SDS011;30576;42.098;24.876;2022-08-01T08:46:23;1.27;;;0.85;;
44838;SDS011;30576;42.098;24.876;2022-08-01T08:48:50;1.58;;;1.15;;
44838;SDS011;30576;42.098;24.876;2022-08-01T08:51:17;0.88;;;0.77;;
44838;SDS011;30576;42.098;24.876;2022-08-01T08:53:44;1.10;;;0.82;;
44838;SDS011;30576;42.098;24.876;2022-08-01T08:56:13;0.95;;;0.70;;
44838;SDS011;30576;42.098;24.876;2022-08-01T08:58:46;2.17;;;0.95;;
44838;SDS011;30576;42.098;24.876;2022-08-01T09:01:12;4.55;;;1.02;;
44838;SDS011;30576;42.098;24.876;2022-08-01T09:03:38;1.25;;;0.90;;
44838;SDS011;30576;42.098;24.876;2022-08-01T09:06:04;1.45;;;0.90;;
44838;SDS011;30576;42.098;24.876;2022-08-01T09:08:30;0.98;;;0.90;;
44838;SDS011;30576;42.098;24.876;2022-08-01T09:10:56;1.08;;;0.75;;
44838;SDS011;30576;42.098;24.876;2022-08-01T09:13:21;0.75;;;0.75;;
44838;SDS011;30576;42.098;24.876;2022-08-01T09:15:51;2.13;;;0.90;;
44838;SDS011;30576;42.098;24.876;2022-08-01T09:21:09;6.38;;;1.75;;
44838;SDS011;30576;42.098;24.876;2022-08-01T09:23:46;2.10;;;0.75;;
44838;SDS011;30576;42.098;24.876;2022-08-01T09:26:17;1.65;;;1.25;;
44838;SDS011;30576;42.098;24.876;2022-08-01T09:28:45;0.63;;;0.63;;
44838;SDS011;30576;42.098;24.876;2022-08-01T09:31:16;1.05;;;0.57;;
44838;SDS011;30576;42.098;24.876;2022-08-01T09:33:49;1.02;;;0.60;;
44838;SDS011;30576;42.098;24.876;2022-08-01T09:36:16;1.65;;;0.73;;
44838;SDS011;30576;42.098;24.876;2022-08-01T09:38:42;0.80;;;0.70;;
44838;SDS011;30576;42.098;24.876;2022-08-01T09:41:08;0.98;;;0.65;;
44838;SDS011;30576;42.098;24.876;2022-08-01T09:43:36;3.08;;;1.60;;
44838;SDS011;30576;42.098;24.876;2022-08-01T09:46:20;0.85;;;0.68;;
44838;SDS011;30576;42.098;24.876;2022-08-01T09:48:55;0.70;;;0.70;;
44838;SDS011;30576;42.098;24.876;2022-08-01T09:51:32;1.58;;;0.63;;
44838;SDS011;30576;42.098;24.876;2022-08-01T09:54:03;4.85;;;0.85;;
44838;SDS011;30576;42.098;24.876;2022-08-01T09:56:37;0.60;;;0.50;;
44838;SDS011;30576;42.098;24.876;2022-08-01T09:59:04;2.60;;;0.80;;
44838;SDS011;30576;42.098;24.876;2022-08-01T10:01:41;1.40;;;0.70;;
44838;SDS011;30576;42.098;24.876;2022-08-01T10:04:15;0.70;;;0.60;;
44838;SDS011;30576;42.098;24.876;2022-08-01T10:06:43;1.80;;;0.85;;
44838;SDS011;30576;42.098;24.876;2022-08-01T10:09:11;1.02;;;0.93;;
44838;SDS011;30576;42.098;24.876;2022-08-01T10:11:40;0.55;;;0.52;;
44838;SDS011;30576;42.098;24.876;2022-08-01T10:14:07;0.85;;;0.70;;
44838;SDS011;30576;42.098;24.876;2022-08-01T10:16:33;0.77;;;0.70;;
44838;SDS011;30576;42.098;24.876;2022-08-01T10:19:00;8.88;;;2.05;;
44838;SDS011;30576;42.098;24.876;2022-08-01T10:21:27;5.40;;;1.55;;
44838;SDS011;30576;42.098;24.876;2022-08-01T10:23:57;1.35;;;0.90;;
44838;SDS011;30576;42.098;24.876;2022-08-01T10:26:24;0.85;;;0.70;;
44838;SDS011;30576;42.098;24.876;2022-08-01T10:28:51;0.95;;;0.75;;
44838;SDS011;30576;42.098;24.876;2022-08-01T10:31:18;3.20;;;1.00;;
44838;SDS011;30576;42.098;24.876;2022-08-01T10:33:44;1.85;;;1.13;;
44838;SDS011;30576;42.098;24.876;2022-08-01T10:36:10;0.95;;;0.60;;
44838;SDS011;30576;42.098;24.876;2022-08-01T10:38:36;1.10;;;0.70;;
44838;SDS011;30576;42.098;24.876;2022-08-01T10:41:02;0.55;;;0.50;;
44838;SDS011;30576;42.098;24.876;2022-08-01T10:43:29;0.93;;;0.65;;
44838;SDS011;30576;42.098;24.876;2022-08-01T10:45:55;1.60;;;0.93;;
44838;SDS011;30576;42.098;24.876;2022-08-01T10:51:01;1.15;;;0.70;;
44838;SDS011;30576;42.098;24.876;2022-08-01T10:53:28;1.13;;;0.63;;
44838;SDS011;30576;42.098;24.876;2022-08-01T11:04:01;0.75;;;0.75;;
44838;SDS011;30576;42.098;24.876;2022-08-01T11:06:42;1.27;;;0.75;;
44838;SDS011;30576;42.098;24.876;2022-08-01T11:11:58;0.80;;;0.75;;
44838;SDS011;30576;42.098;24.876;2022-08-01T11:14:25;2.58;;;0.80;;
44838;SDS011;30576;42.098;24.876;2022-08-01T11:16:51;1.52;;;0.77;;
44838;SDS011;30576;42.098;24.876;2022-08-01T11:19:16;0.77;;;0.63;;
44838;SDS011;30576;42.098;24.876;2022-08-01T11:29:43;1.92;;;1.08;;
44838;SDS011;30576;42.098;24.876;2022-08-01T11:32:24;0.98;;;0.70;;
44838;SDS011;30576;42.098;24.876;2022-08-01T11:34:52;0.80;;;0.73;;
44838;SDS011;30576;42.098;24.876;2022-08-01T11:37:23;0.80;;;0.77;;
44838;SDS011;30576;42.098;24.876;2022-08-01T11:40:34;1.08;;;0.73;;
44838;SDS011;30576;42.098;24.876;2022-08-01T11:42:40;0.75;;;0.60;;
44838;SDS011;30576;42.098;24.876;2022-08-01T11:45:06;0.50;;;0.50;;
44838;SDS011;30576;42.098;24.876;2022-08-01T11:47:44;0.77;;;0.77;;
44838;SDS011;30576;42.098;24.876;2022-08-01T11:50:47;1.35;;;0.73;;
44838;SDS011;30576;42.098;24.876;2022-08-01T11:53:07;1.08;;;0.80;;
44838;SDS011;30576;42.098;24.876;2022-08-01T11:55:33;0.80;;;0.52;;
44838;SDS011;30576;42.098;24.876;2022-08-01T11:58:05;1.75;;;1.10;;
44838;SDS011;30576;42.098;24.876;2022-08-01T12:00:32;0.90;;;0.68;;
44838;SDS011;30576;42.098;24.876;2022-08-01T12:03:00;1.98;;;1.58;;
44838;SDS011;30576;42.098;24.876;2022-08-01T12:05:28;1.08;;;0.75;;
44838;SDS011;30576;42.098;24.876;2022-08-01T12:07:54;1.33;;;0.93;;
44838;SDS011;30576;42.098;24.876;2022-08-01T12:10:28;1.45;;;1.25;;
44838;SDS011;30576;42.098;24.876;2022-08-01T12:13:01;3.78;;;1.42;;
44838;SDS011;30576;42.098;24.876;2022-08-01T12:15:32;1.58;;;1.00;;
44838;SDS011;30576;42.098;24.876;2022-08-01T12:18:01;0.95;;;0.70;;
44838;SDS011;30576;42.098;24.876;2022-08-01T12:20:36;0.85;;;0.65;;
44838;SDS011;30576;42.098;24.876;2022-08-01T12:23:04;1.38;;;0.75;;
44838;SDS011;30576;42.098;24.876;2022-08-01T12:25:32;1.77;;;1.00;;
44838;SDS011;30576;42.098;24.876;2022-08-01T12:28:02;1.73;;;1.15;;
44838;SDS011;30576;42.098;24.876;2022-08-01T12:30:29;0.82;;;0.77;;
44838;SDS011;30576;42.098;24.876;2022-08-01T12:32:56;1.00;;;0.80;;
44838;SDS011;30576;42.098;24.876;2022-08-01T12:35:25;0.50;;;0.50;;
44838;SDS011;30576;42.098;24.876;2022-08-01T12:37:53;1.38;;;0.75;;
44838;SDS011;30576;42.098;24.876;2022-08-01T12:40:21;4.03;;;1.75;;
44838;SDS011;30576;42.098;24.876;2022-08-01T13:19:05;1.08;;;0.90;;
44838;SDS011;30576;42.098;24.876;2022-08-01T13:21:31;1.42;;;1.00;;
44838;SDS011;30576;42.098;24.876;2022-08-01T13:24:06;1.40;;;1.02;;
44838;SDS011;30576;42.098;24.876;2022-08-01T13:26:43;2.05;;;1.45;;
44838;SDS011;30576;42.098;24.876;2022-08-01T13:29:20;0.93;;;0.80;;
44838;SDS011;30576;42.098;24.876;2022-08-01T13:31:53;0.90;;;0.80;;
44838;SDS011;30576;42.098;24.876;2022-08-01T13:34:28;1.08;;;0.88;;
44838;SDS011;30576;42.098;24.876;2022-08-01T13:36:55;0.80;;;0.70;;
44838;SDS011;30576;42.098;24.876;2022-08-01T13:39:20;1.10;;;0.90;;
44838;SDS011;30576;42.098;24.876;2022-08-01T13:42:04;1.48;;;1.00;;
44838;SDS011;30576;42.098;24.876;2022-08-01T13:44:30;1.00;;;0.90;;
44838;SDS011;30576;42.098;24.876;2022-08-01T13:46:55;1.63;;;1.15;;
44838;SDS011;30576;42.098;24.876;2022-08-01T13:49:21;1.80;;;0.88;;
44838;SDS011;30576;42.098;24.876;2022-08-01T13:51:46;0.65;;;0.52;;
44838;SDS011;30576;42.098;24.876;2022-08-01T13:54:15;1.23;;;0.77;;
44838;SDS011;30576;42.098;24.876;2022-08-01T13:56:40;1.38;;;0.95;;
44838;SDS011;30576;42.098;24.876;2022-08-01T13:59:06;1.20;;;0.90;;
44838;SDS011;30576;42.098;24.876;2022-08-01T14:01:32;3.22;;;1.20;;
44838;SDS011;30576;42.098;24.876;2022-08-01T14:03:58;1.05;;;0.68;;
44838;SDS011;30576;42.098;24.876;2022-08-01T14:06:23;1.35;;;0.80;;
44838;SDS011;30576;42.098;24.876;2022-08-01T14:08:49;0.93;;;0.80;;
44838;SDS011;30576;42.098;24.876;2022-08-01T14:11:15;2.67;;;0.98;;
44838;SDS011;30576;42.098;24.876;2022-08-01T14:13:41;1.85;;;1.48;;
44838;SDS011;30576;42.098;24.876;2022-08-01T14:16:07;1.00;;;0.93;;
44838;SDS011;30576;42.098;24.876;2022-08-01T14:18:33;1.50;;;0.90;;
44838;SDS011;30576;42.098;24.876;2022-08-01T14:20:58;0.80;;;0.80;;
44838;SDS011;30576;42.098;24.876;2022-08-01T14:23:24;2.33;;;0.80;;
44838;SDS011;30576;42.098;24.876;2022-08-01T14:25:50;1.33;;;0.80;;
44838;SDS011;30576;42.098;24.876;2022-08-01T14:28:16;1.63;;;1.05;;
44838;SDS011;30576;42.098;24.876;2022-08-01T14:30:41;1.02;;;0.77;;
44838;SDS011;30576;42.098;24.876;2022-08-01T14:33:07;0.98;;;0.63;;
44838;SDS011;30576;42.098;24.876;2022-08-01T14:35:33;1.15;;;0.90;;
44838;SDS011;30576;42.098;24.876;2022-08-01T14:37:59;1.80;;;1.02;;
44838;SDS011;30576;42.098;24.876;2022-08-01T14:40:24;1.08;;;0.73;;
44838;SDS011;30576;42.098;24.876;2022-08-01T14:42:50;0.85;;;0.85;;
44838;SDS011;30576;42.098;24.876;2022-08-01T14:45:15;2.10;;;1.35;;
44838;SDS011;30576;42.098;24.876;2022-08-01T14:47:41;2.17;;;1.08;;
44838;SDS011;30576;42.098;24.876;2022-08-01T14:50:09;2.05;;;1.10;;
44838;SDS011;30576;42.098;24.876;2022-08-01T14:52:37;2.13;;;1.35;;
44838;SDS011;30576;42.098;24.876;2022-08-01T14:55:03;1.38;;;0.75;;
44838;SDS011;30576;42.098;24.876;2022-08-01T14:57:30;1.92;;;1.20;;
44838;SDS011;30576;42.098;24.876;2022-08-01T14:59:56;1.98;;;1.60;;
44838;SDS011;30576;42.098;24.876;2022-08-01T15:02:22;0.77;;;0.60;;
44838;SDS011;30576;42.098;24.876;2022-08-01T15:04:48;1.10;;;0.80;;
44838;SDS011;30576;42.098;24.876;2022-08-01T15:07:14;1.67;;;1.10;;
44838;SDS011;30576;42.098;24.876;2022-08-01T15:09:42;1.17;;;1.08;;
44838;SDS011;30576;42.098;24.876;2022-08-01T15:12:08;1.13;;;0.90;;
44838;SDS011;30576;42.098;24.876;2022-08-01T15:14:33;2.38;;;1.02;;
44838;SDS011;30576;42.098;24.876;2022-08-01T15:17:14;1.13;;;0.88;;
44838;SDS011;30576;42.098;24.876;2022-08-01T15:19:41;2.35;;;0.88;;
44838;SDS011;30576;42.098;24.876;2022-08-01T15:22:06;5.47;;;0.90;;
44838;SDS011;30576;42.098;24.876;2022-08-01T15:24:32;2.50;;;1.35;;
44838;SDS011;30576;42.098;24.876;2022-08-01T15:26:57;3.67;;;1.13;;
44838;SDS011;30576;42.098;24.876;2022-08-01T15:29:23;2.13;;;1.45;;
44838;SDS011;30576;42.098;24.876;2022-08-01T15:31:49;0.80;;;0.80;;
44838;SDS011;30576;42.098;24.876;2022-08-01T15:34:15;1.02;;;0.88;;
44838;SDS011;30576;42.098;24.876;2022-08-01T15:36:41;1.17;;;0.90;;
44838;SDS011;30576;42.098;24.876;2022-08-01T15:39:08;2.17;;;1.15;;
44838;SDS011;30576;42.098;24.876;2022-08-01T15:41:34;0.60;;;0.60;;
44838;SDS011;30576;42.098;24.876;2022-08-01T15:43:59;2.03;;;0.90;;
44838;SDS011;30576;42.098;24.876;2022-08-01T15:46:25;1.50;;;1.02;;
44838;SDS011;30576;42.098;24.876;2022-08-01T15:48:50;1.40;;;0.90;;
44838;SDS011;30576;42.098;24.876;2022-08-01T15:51:16;2.00;;;1.20;;